createdAt,value
2022-11-27T00:28:21.798Z,99135.19
2022-11-27T00:58:26.918Z,99135.19
2022-11-27T01:28:31.128Z,99136.66
2022-11-27T01:58:35.825Z,99106.44
2022-11-27T02:28:58.623Z,99088.84
2022-11-27T02:59:04.841Z,99059.63
2022-11-27T03:29:12.450Z,99022.16
2022-11-27T03:59:20.248Z,98985.31
2022-11-27T04:29:24.343Z,98970.16
2022-11-27T04:59:28.427Z,98988.59
2022-11-27T05:29:32.518Z,98943.56
2022-11-27T05:59:36.715Z,98893.72
2022-11-27T06:29:40.943Z,98875.53
2022-11-27T06:59:44.999Z,98872.81
2022-11-27T07:29:49.099Z,98849.28
2022-11-27T07:59:53.192Z,98815.69
2022-11-27T08:29:57.313Z,98817.66
2022-11-27T09:00:01.409Z,98779.16
2022-11-27T09:30:07.565Z,98748.69
2022-11-27T10:00:15.908Z,98717.44
2022-11-27T10:30:22.062Z,98671.28
2022-11-27T11:00:27.874Z,98665.59
2022-11-27T11:30:33.374Z,98614.34
2022-11-27T12:01:04.694Z,98576.94
2022-11-27T12:31:09.615Z,98522.59
2022-11-27T13:01:16.957Z,98486.44
2022-11-27T13:31:23.219Z,98446.16
2022-11-27T14:01:27.567Z,98345.19
2022-11-27T14:31:35.370Z,98332.63
2022-11-27T15:01:41.394Z,98335.56
2022-11-27T15:31:52.345Z,98322.38
2022-11-27T16:01:57.810Z,98327.47
2022-11-27T16:32:02.395Z,98316.50
2022-11-27T17:02:06.959Z,98248.91
2022-11-27T17:32:12.965Z,98190.66
2022-11-27T18:02:17.915Z,98123.78
2022-11-27T18:32:22.884Z,98062.59
2022-11-27T19:02:27.194Z,98067.88
2022-11-27T19:32:31.358Z,98022.06
2022-11-27T20:02:37.131Z,98016.81
2022-11-27T20:32:41.475Z,97966.94
2022-11-27T21:02:45.675Z,97966.13
2022-11-27T21:32:50.089Z,97940.81
2022-11-27T22:02:54.456Z,97914.63
2022-11-27T22:32:58.618Z,97921.72
2022-11-27T23:03:03.031Z,97852.59
2022-11-27T23:33:07.211Z,97846.31
